Aransas Pass, Texas
Current Conditions -  °F | °C
As of 9:35 AM on Saturday 25 Oct 2014 (Local Time) from KTFP Reporting Station
Clear Clear  
Wind Chill: 21°   Ceiling: Unl
Heat Index: 21°   Visibility: 10mi
Dew Point: 18°   Wind: 3mph
Humidity: 80%   Direction: 340°NNW
Pressure: 30.17"   Gusts: NA
Location:  27.9°N, 97.15°W
Report Text: KTFP 251435Z AUTO 34003KT 10SM CLR 21/18 A3017 RMK AO2 T02140179
Loading
Personal Weather Stations






























Interactive Weather Map
Tropical Storm Tracking
New forecast layout! Learn more

10-Day Weather Forecast

Advertisements
Track Severe Weather on mobile